Pagrindinis puslapis
METAR-TAF:

METAR-TAF

Oro uostai :

Burgosas, Ispanija

platuma: 42-22N, ilguma: 003-38W, Aukštis: 894 m

Dabartinis oras

Ataskaita buvo paskelbta 32 minutes, ne 13:00 UTC
Vėjas 5 kt iš Vakarų/Šiaurės Vakarų
Temperatūra 11°C
Drėgmė 47%
Slėgis 1009 hPa
Matomumas 10 km arba daugiau
Su prošvaistėmis ne aukštis 4400 ft

METAR: LEBG 251300Z 29005KT 9999 BKN044 11/00 Q1009

Laikas: 15:32 (13:32 UTC)

Prognozė

Ataskaita buvo paskelbta 5 valandos ir 32 minutes, ne 08:00 UTC
Prognozė galioja nuo 25 metu 09 UTC su 26 metu 09 UTC
Vėjas 7 kt iš Šiaurės Rytų
Matomumas 10 km arba daugiau
nėra debesų žemiau 1500 m ir nėra kamuolinių lietaus debesų
Tikimybė 40% :
Laikinai
nuo 25 metu 13 UTC su 25 metu 23 UTC
Matomumas: 4000 m
Su prošvaistėmis ne aukštis 1400 ft
lietus
Tikimybė 30% :
Laikinai
nuo 26 metu 06 UTC su 26 metu 09 UTC
Su prošvaistėmis ne aukštis 1000 ft

TAF: LEBG 250800Z 2509/2609 05007KT CAVOK TX13/2515Z TN02/2604Z PROB40 TEMPO 2513/2523 4000 RA BKN014 PROB30 TEMPO 2606/2609 BKN010

Orai ataskaitas ir orų prognozės (METAR, TAF).

turimą stotys yra geltonos ir raudonos taškus žemėlapyje.

Perkelti pele per norėdami pamatyti stoties vardą.

Tada spustelėkite, norėdami matyti oro stebėjimo ir prognozės.

Norėdami pakeisti žemėlapį: spustelėkite ant žalios mygtukų su juodo kryžiaus žemyn,; žalią mygtuką su brūkšneliu, jei norite nutolinti; arba žalių rodyklių gretimoms žemėlapius.


METAR-TAF: